sensor_id;sensor_type;location;lat;lon;timestamp;temperature;humidity
74081;SHT31;62438;52.228;6.864;2022-08-25T00:01:17;22.73;51.52
74081;SHT31;62438;52.228;6.864;2022-08-25T00:03:17;22.55;52.08
74081;SHT31;62438;52.228;6.864;2022-08-25T00:05:17;22.52;52.07
74081;SHT31;62438;52.228;6.864;2022-08-25T00:07:18;22.52;52.08
74081;SHT31;62438;52.228;6.864;2022-08-25T00:09:21;22.45;52.80
74081;SHT31;62438;52.228;6.864;2022-08-25T00:11:22;22.47;52.34
74081;SHT31;62438;52.228;6.864;2022-08-25T00:13:23;22.46;52.50
74081;SHT31;62438;52.228;6.864;2022-08-25T00:15:24;22.38;52.57
74081;SHT31;62438;52.228;6.864;2022-08-25T00:17:24;22.16;53.09
74081;SHT31;62438;52.228;6.864;2022-08-25T00:19:29;22.23;52.43
74081;SHT31;62438;52.228;6.864;2022-08-25T00:21:31;22.08;53.24
74081;SHT31;62438;52.228;6.864;2022-08-25T00:23:32;22.13;52.86
74081;SHT31;62438;52.228;6.864;2022-08-25T00:25:32;22.15;52.71
74081;SHT31;62438;52.228;6.864;2022-08-25T00:27:33;22.23;52.04
74081;SHT31;62438;52.228;6.864;2022-08-25T00:29:33;22.15;52.97
74081;SHT31;62438;52.228;6.864;2022-08-25T00:31:37;22.08;52.99
74081;SHT31;62438;52.228;6.864;2022-08-25T00:33:38;22.06;52.87
74081;SHT31;62438;52.228;6.864;2022-08-25T00:35:39;22.15;52.54
74081;SHT31;62438;52.228;6.864;2022-08-25T00:37:41;22.04;53.97
74081;SHT31;62438;52.228;6.864;2022-08-25T00:39:41;22.09;52.89
74081;SHT31;62438;52.228;6.864;2022-08-25T00:41:42;21.95;53.42
74081;SHT31;62438;52.228;6.864;2022-08-25T00:43:55;21.82;53.80
74081;SHT31;62438;52.228;6.864;2022-08-25T00:45:55;21.91;53.73
74081;SHT31;62438;52.228;6.864;2022-08-25T00:47:56;21.80;54.23
74081;SHT31;62438;52.228;6.864;2022-08-25T00:49:58;21.78;53.68
74081;SHT31;62438;52.228;6.864;2022-08-25T00:54:02;21.73;53.80
74081;SHT31;62438;52.228;6.864;2022-08-25T00:56:02;21.65;54.64
74081;SHT31;62438;52.228;6.864;2022-08-25T00:58:17;21.53;55.75
74081;SHT31;62438;52.228;6.864;2022-08-25T01:00:27;21.50;55.47
74081;SHT31;62438;52.228;6.864;2022-08-25T01:02:28;21.36;55.54
74081;SHT31;62438;52.228;6.864;2022-08-25T01:04:28;21.27;55.99
74081;SHT31;62438;52.228;6.864;2022-08-25T01:06:32;21.24;56.08
74081;SHT31;62438;52.228;6.864;2022-08-25T01:08:33;21.36;55.56
74081;SHT31;62438;52.228;6.864;2022-08-25T01:10:35;21.51;55.25
74081;SHT31;62438;52.228;6.864;2022-08-25T01:12:38;21.37;55.93
74081;SHT31;62438;52.228;6.864;2022-08-25T01:14:39;21.37;55.30
74081;SHT31;62438;52.228;6.864;2022-08-25T01:16:40;21.36;55.72
74081;SHT31;62438;52.228;6.864;2022-08-25T01:18:46;21.29;55.78
74081;SHT31;62438;52.228;6.864;2022-08-25T01:20:52;21.31;55.26
74081;SHT31;62438;52.228;6.864;2022-08-25T01:22:53;21.29;55.78
74081;SHT31;62438;52.228;6.864;2022-08-25T01:25:02;21.23;56.55
74081;SHT31;62438;52.228;6.864;2022-08-25T01:27:05;21.19;56.07
74081;SHT31;62438;52.228;6.864;2022-08-25T01:29:07;21.20;56.10
74081;SHT31;62438;52.228;6.864;2022-08-25T01:31:20;21.24;55.47
74081;SHT31;62438;52.228;6.864;2022-08-25T01:33:21;21.22;55.50
74081;SHT31;62438;52.228;6.864;2022-08-25T01:35:21;21.14;56.37
74081;SHT31;62438;52.228;6.864;2022-08-25T01:37:23;21.14;55.63
74081;SHT31;62438;52.228;6.864;2022-08-25T01:39:24;21.04;56.12
74081;SHT31;62438;52.228;6.864;2022-08-25T01:43:37;21.07;56.31
74081;SHT31;62438;52.228;6.864;2022-08-25T01:45:40;21.09;55.97
74081;SHT31;62438;52.228;6.864;2022-08-25T01:47:41;21.07;55.96
74081;SHT31;62438;52.228;6.864;2022-08-25T01:49:41;21.06;56.55
74081;SHT31;62438;52.228;6.864;2022-08-25T01:51:50;21.00;56.32
74081;SHT31;62438;52.228;6.864;2022-08-25T01:53:51;21.07;56.26
74081;SHT31;62438;52.228;6.864;2022-08-25T01:55:51;21.12;55.53
74081;SHT31;62438;52.228;6.864;2022-08-25T01:57:52;21.03;56.08
74081;SHT31;62438;52.228;6.864;2022-08-25T01:59:52;21.07;56.05
74081;SHT31;62438;52.228;6.864;2022-08-25T02:01:53;20.95;56.98
74081;SHT31;62438;52.228;6.864;2022-08-25T02:03:54;20.86;56.59
74081;SHT31;62438;52.228;6.864;2022-08-25T02:05:56;20.81;57.16
74081;SHT31;62438;52.228;6.864;2022-08-25T02:07:57;20.76;57.43
74081;SHT31;62438;52.228;6.864;2022-08-25T02:09:57;20.79;57.24
74081;SHT31;62438;52.228;6.864;2022-08-25T02:11:58;20.82;57.07
74081;SHT31;62438;52.228;6.864;2022-08-25T02:13:59;20.82;56.99
74081;SHT31;62438;52.228;6.864;2022-08-25T02:16:00;20.82;57.17
74081;SHT31;62438;52.228;6.864;2022-08-25T02:18:01;20.85;56.72
74081;SHT31;62438;52.228;6.864;2022-08-25T02:20:04;20.86;56.72
74081;SHT31;62438;52.228;6.864;2022-08-25T02:22:05;20.81;56.92
74081;SHT31;62438;52.228;6.864;2022-08-25T02:24:07;20.82;57.02
74081;SHT31;62438;52.228;6.864;2022-08-25T02:26:08;20.83;56.54
74081;SHT31;62438;52.228;6.864;2022-08-25T02:28:09;20.85;56.86
74081;SHT31;62438;52.228;6.864;2022-08-25T02:30:11;20.76;57.40
74081;SHT31;62438;52.228;6.864;2022-08-25T02:32:12;20.64;57.75
74081;SHT31;62438;52.228;6.864;2022-08-25T02:34:13;20.64;57.57
74081;SHT31;62438;52.228;6.864;2022-08-25T02:36:14;20.68;58.16
74081;SHT31;62438;52.228;6.864;2022-08-25T02:38:15;20.73;57.56
74081;SHT31;62438;52.228;6.864;2022-08-25T02:40:16;20.64;57.93
74081;SHT31;62438;52.228;6.864;2022-08-25T02:42:16;20.56;58.11
74081;SHT31;62438;52.228;6.864;2022-08-25T02:44:17;20.55;57.95
74081;SHT31;62438;52.228;6.864;2022-08-25T02:46:19;20.54;58.28
74081;SHT31;62438;52.228;6.864;2022-08-25T02:48:20;20.49;58.38
74081;SHT31;62438;52.228;6.864;2022-08-25T02:50:20;20.48;58.33
74081;SHT31;62438;52.228;6.864;2022-08-25T02:52:21;20.37;58.49
74081;SHT31;62438;52.228;6.864;2022-08-25T02:54:21;20.41;58.43
74081;SHT31;62438;52.228;6.864;2022-08-25T02:56:23;20.41;58.27
74081;SHT31;62438;52.228;6.864;2022-08-25T02:58:25;20.27;58.93
74081;SHT31;62438;52.228;6.864;2022-08-25T03:00:25;20.25;58.71
74081;SHT31;62438;52.228;6.864;2022-08-25T03:02:26;20.31;59.40
74081;SHT31;62438;52.228;6.864;2022-08-25T03:04:27;20.31;58.43
74081;SHT31;62438;52.228;6.864;2022-08-25T03:06:29;20.27;59.34
74081;SHT31;62438;52.228;6.864;2022-08-25T03:08:29;20.38;58.54
74081;SHT31;62438;52.228;6.864;2022-08-25T03:10:30;20.44;58.23
74081;SHT31;62438;52.228;6.864;2022-08-25T03:12:30;20.43;58.49
74081;SHT31;62438;52.228;6.864;2022-08-25T03:14:31;20.38;58.59
74081;SHT31;62438;52.228;6.864;2022-08-25T03:16:32;20.28;59.27
74081;SHT31;62438;52.228;6.864;2022-08-25T03:18:33;20.21;59.34
74081;SHT31;62438;52.228;6.864;2022-08-25T03:20:34;20.27;58.58
74081;SHT31;62438;52.228;6.864;2022-08-25T03:22:34;20.27;58.97
74081;SHT31;62438;52.228;6.864;2022-08-25T03:24:35;20.23;59.44
74081;SHT31;62438;52.228;6.864;2022-08-25T03:26:36;20.10;59.91
74081;SHT31;62438;52.228;6.864;2022-08-25T03:28:55;20.07;59.46
74081;SHT31;62438;52.228;6.864;2022-08-25T03:30:56;20.23;59.17
74081;SHT31;62438;52.228;6.864;2022-08-25T03:32:56;20.09;59.72
74081;SHT31;62438;52.228;6.864;2022-08-25T03:34:57;20.07;59.99
74081;SHT31;62438;52.228;6.864;2022-08-25T03:36:58;20.16;59.26
74081;SHT31;62438;52.228;6.864;2022-08-25T03:38:58;20.28;58.74
74081;SHT31;62438;52.228;6.864;2022-08-25T03:40:59;20.30;58.81
74081;SHT31;62438;52.228;6.864;2022-08-25T03:43:00;20.31;58.72
74081;SHT31;62438;52.228;6.864;2022-08-25T03:45:03;20.28;58.98
74081;SHT31;62438;52.228;6.864;2022-08-25T03:47:05;20.20;59.22
74081;SHT31;62438;52.228;6.864;2022-08-25T03:49:08;20.14;59.45
74081;SHT31;62438;52.228;6.864;2022-08-25T03:51:09;20.06;59.56
74081;SHT31;62438;52.228;6.864;2022-08-25T03:53:10;20.04;59.95
74081;SHT31;62438;52.228;6.864;2022-08-25T03:55:12;20.10;59.55
74081;SHT31;62438;52.228;6.864;2022-08-25T03:57:12;20.12;59.44
74081;SHT31;62438;52.228;6.864;2022-08-25T03:59:13;20.07;60.09
74081;SHT31;62438;52.228;6.864;2022-08-25T04:01:15;20.10;59.53
74081;SHT31;62438;52.228;6.864;2022-08-25T04:03:16;20.14;59.69
74081;SHT31;62438;52.228;6.864;2022-08-25T04:05:17;20.06;59.88
74081;SHT31;62438;52.228;6.864;2022-08-25T04:07:19;19.96;60.53
74081;SHT31;62438;52.228;6.864;2022-08-25T04:09:19;20.03;60.15
74081;SHT31;62438;52.228;6.864;2022-08-25T04:11:22;19.97;60.47
74081;SHT31;62438;52.228;6.864;2022-08-25T04:13:22;20.01;59.92
74081;SHT31;62438;52.228;6.864;2022-08-25T04:15:23;19.97;60.55
74081;SHT31;62438;52.228;6.864;2022-08-25T04:17:24;19.89;60.49
74081;SHT31;62438;52.228;6.864;2022-08-25T04:19:25;19.82;61.14
74081;SHT31;62438;52.228;6.864;2022-08-25T04:21:25;19.77;61.33
74081;SHT31;62438;52.228;6.864;2022-08-25T04:23:26;19.87;60.38
74081;SHT31;62438;52.228;6.864;2022-08-25T04:25:26;19.76;61.21
74081;SHT31;62438;52.228;6.864;2022-08-25T04:27:27;19.67;61.46
74081;SHT31;62438;52.228;6.864;2022-08-25T04:29:27;19.69;61.37
74081;SHT31;62438;52.228;6.864;2022-08-25T04:31:29;19.62;61.44
74081;SHT31;62438;52.228;6.864;2022-08-25T04:33:30;19.63;61.49
74081;SHT31;62438;52.228;6.864;2022-08-25T04:35:30;19.61;61.56
74081;SHT31;62438;52.228;6.864;2022-08-25T04:37:31;19.49;62.72
74081;SHT31;62438;52.228;6.864;2022-08-25T04:39:32;19.52;61.98
74081;SHT31;62438;52.228;6.864;2022-08-25T04:41:33;19.52;62.16
74081;SHT31;62438;52.228;6.864;2022-08-25T04:43:34;19.48;62.24
74081;SHT31;62438;52.228;6.864;2022-08-25T04:45:39;19.44;62.33
74081;SHT31;62438;52.228;6.864;2022-08-25T04:47:39;19.46;62.26
74081;SHT31;62438;52.228;6.864;2022-08-25T04:49:40;19.51;62.42
74081;SHT31;62438;52.228;6.864;2022-08-25T04:51:40;19.49;62.57
74081;SHT31;62438;52.228;6.864;2022-08-25T04:53:42;19.56;62.65
74081;SHT31;62438;52.228;6.864;2022-08-25T04:55:46;19.62;62.36
74081;SHT31;62438;52.228;6.864;2022-08-25T04:57:47;19.67;61.72
74081;SHT31;62438;52.228;6.864;2022-08-25T04:59:47;19.58;62.75
74081;SHT31;62438;52.228;6.864;2022-08-25T05:01:48;19.58;62.68
74081;SHT31;62438;52.228;6.864;2022-08-25T05:03:55;19.54;63.00
74081;SHT31;62438;52.228;6.864;2022-08-25T05:05:56;19.55;63.59
74081;SHT31;62438;52.228;6.864;2022-08-25T05:07:57;19.56;63.79
74081;SHT31;62438;52.228;6.864;2022-08-25T05:09:57;19.63;62.84
74081;SHT31;62438;52.228;6.864;2022-08-25T05:11:59;19.72;62.43
74081;SHT31;62438;52.228;6.864;2022-08-25T05:14:00;19.63;63.32
74081;SHT31;62438;52.228;6.864;2022-08-25T05:16:02;19.58;63.62
74081;SHT31;62438;52.228;6.864;2022-08-25T05:18:02;19.69;63.12
74081;SHT31;62438;52.228;6.864;2022-08-25T05:20:03;19.73;62.87
74081;SHT31;62438;52.228;6.864;2022-08-25T05:22:04;19.83;62.40
74081;SHT31;62438;52.228;6.864;2022-08-25T05:24:04;19.93;62.73
74081;SHT31;62438;52.228;6.864;2022-08-25T05:26:11;19.82;62.76
74081;SHT31;62438;52.228;6.864;2022-08-25T05:28:12;20.03;62.22
74081;SHT31;62438;52.228;6.864;2022-08-25T05:30:14;20.03;62.71
74081;SHT31;62438;52.228;6.864;2022-08-25T05:32:14;20.07;62.49
74081;SHT31;62438;52.228;6.864;2022-08-25T05:34:15;20.06;63.33
74081;SHT31;62438;52.228;6.864;2022-08-25T05:36:21;20.01;63.34
74081;SHT31;62438;52.228;6.864;2022-08-25T05:38:21;20.06;63.18
74081;SHT31;62438;52.228;6.864;2022-08-25T05:40:23;20.17;62.17
74081;SHT31;62438;52.228;6.864;2022-08-25T05:42:24;20.14;62.97
74081;SHT31;62438;52.228;6.864;2022-08-25T05:44:24;20.21;62.94
74081;SHT31;62438;52.228;6.864;2022-08-25T05:46:25;20.31;62.28
74081;SHT31;62438;52.228;6.864;2022-08-25T05:48:26;20.34;61.83
74081;SHT31;62438;52.228;6.864;2022-08-25T05:50:27;20.35;63.15
74081;SHT31;62438;52.228;6.864;2022-08-25T05:52:27;20.41;62.08
74081;SHT31;62438;52.228;6.864;2022-08-25T05:54:28;20.47;62.46
74081;SHT31;62438;52.228;6.864;2022-08-25T05:56:28;20.54;62.52
74081;SHT31;62438;52.228;6.864;2022-08-25T05:58:29;20.64;62.04
74081;SHT31;62438;52.228;6.864;2022-08-25T06:00:30;20.64;62.33
74081;SHT31;62438;52.228;6.864;2022-08-25T06:02:31;20.76;61.35
74081;SHT31;62438;52.228;6.864;2022-08-25T06:04:43;20.83;62.09
74081;SHT31;62438;52.228;6.864;2022-08-25T06:06:43;20.91;61.39
74081;SHT31;62438;52.228;6.864;2022-08-25T06:08:44;20.89;62.11
74081;SHT31;62438;52.228;6.864;2022-08-25T06:10:51;21.03;61.18
74081;SHT31;62438;52.228;6.864;2022-08-25T06:12:51;21.07;61.43
74081;SHT31;62438;52.228;6.864;2022-08-25T06:14:52;21.12;60.94
74081;SHT31;62438;52.228;6.864;2022-08-25T06:16:52;21.23;61.13
74081;SHT31;62438;52.228;6.864;2022-08-25T06:18:53;21.27;61.46
74081;SHT31;62438;52.228;6.864;2022-08-25T06:20:54;21.27;61.84
74081;SHT31;62438;52.228;6.864;2022-08-25T06:22:55;21.36;60.80
74081;SHT31;62438;52.228;6.864;2022-08-25T06:24:55;21.44;61.06
74081;SHT31;62438;52.228;6.864;2022-08-25T06:26:56;21.54;60.77
74081;SHT31;62438;52.228;6.864;2022-08-25T06:28:57;21.61;60.30
74081;SHT31;62438;52.228;6.864;2022-08-25T06:30:59;21.70;60.37
74081;SHT31;62438;52.228;6.864;2022-08-25T06:33:00;21.71;61.22
74081;SHT31;62438;52.228;6.864;2022-08-25T06:35:02;21.78;61.68
74081;SHT31;62438;52.228;6.864;2022-08-25T06:37:02;21.87;60.27
74081;SHT31;62438;52.228;6.864;2022-08-25T06:39:03;22.09;59.47
74081;SHT31;62438;52.228;6.864;2022-08-25T06:41:05;22.18;59.69
74081;SHT31;62438;52.228;6.864;2022-08-25T06:43:05;22.22;59.77
74081;SHT31;62438;52.228;6.864;2022-08-25T06:45:08;22.29;59.37
74081;SHT31;62438;52.228;6.864;2022-08-25T06:47:08;22.38;60.12
74081;SHT31;62438;52.228;6.864;2022-08-25T06:49:09;22.45;60.00
74081;SHT31;62438;52.228;6.864;2022-08-25T06:51:12;22.52;60.53
74081;SHT31;62438;52.228;6.864;2022-08-25T06:53:12;22.67;58.57
74081;SHT31;62438;52.228;6.864;2022-08-25T06:55:13;22.78;58.94
74081;SHT31;62438;52.228;6.864;2022-08-25T06:57:13;22.91;57.43
74081;SHT31;62438;52.228;6.864;2022-08-25T06:59:17;23.08;57.37
74081;SHT31;62438;52.228;6.864;2022-08-25T07:01:20;23.19;56.77
74081;SHT31;62438;52.228;6.864;2022-08-25T07:03:22;23.18;57.76
74081;SHT31;62438;52.228;6.864;2022-08-25T07:05:22;23.24;56.82
74081;SHT31;62438;52.228;6.864;2022-08-25T07:07:23;23.34;58.33
74081;SHT31;62438;52.228;6.864;2022-08-25T07:09:24;23.48;56.77
74081;SHT31;62438;52.228;6.864;2022-08-25T07:11:24;23.67;56.94
74081;SHT31;62438;52.228;6.864;2022-08-25T07:13:25;23.75;56.53
74081;SHT31;62438;52.228;6.864;2022-08-25T07:15:26;23.76;57.91
74081;SHT31;62438;52.228;6.864;2022-08-25T07:17:26;23.90;55.71
74081;SHT31;62438;52.228;6.864;2022-08-25T07:19:26;23.87;56.12
74081;SHT31;62438;52.228;6.864;2022-08-25T07:21:29;23.90;56.64
74081;SHT31;62438;52.228;6.864;2022-08-25T07:23:30;23.99;55.95
74081;SHT31;62438;52.228;6.864;2022-08-25T07:25:32;24.07;56.15
74081;SHT31;62438;52.228;6.864;2022-08-25T07:27:33;24.10;56.40
74081;SHT31;62438;52.228;6.864;2022-08-25T07:29:36;24.18;57.68
74081;SHT31;62438;52.228;6.864;2022-08-25T07:31:38;24.27;55.60
74081;SHT31;62438;52.228;6.864;2022-08-25T07:33:39;24.35;56.32
74081;SHT31;62438;52.228;6.864;2022-08-25T07:35:59;24.44;55.31
74081;SHT31;62438;52.228;6.864;2022-08-25T07:37:59;24.54;55.08
74081;SHT31;62438;52.228;6.864;2022-08-25T07:40:04;24.57;54.55
74081;SHT31;62438;52.228;6.864;2022-08-25T07:42:08;24.68;55.62
74081;SHT31;62438;52.228;6.864;2022-08-25T07:44:10;24.73;55.99
74081;SHT31;62438;52.228;6.864;2022-08-25T07:46:11;24.86;54.43
74081;SHT31;62438;52.228;6.864;2022-08-25T07:48:11;24.86;54.50
74081;SHT31;62438;52.228;6.864;2022-08-25T07:50:12;24.95;55.00
74081;SHT31;62438;52.228;6.864;2022-08-25T07:52:12;25.02;55.44
74081;SHT31;62438;52.228;6.864;2022-08-25T07:54:14;25.02;54.79
74081;SHT31;62438;52.228;6.864;2022-08-25T07:56:16;25.24;54.20
74081;SHT31;62438;52.228;6.864;2022-08-25T07:58:16;25.31;53.76
74081;SHT31;62438;52.228;6.864;2022-08-25T08:00:17;25.48;53.46
74081;SHT31;62438;52.228;6.864;2022-08-25T08:02:18;25.48;54.26
74081;SHT31;62438;52.228;6.864;2022-08-25T08:04:27;25.60;53.71
74081;SHT31;62438;52.228;6.864;2022-08-25T08:06:28;25.71;52.76
74081;SHT31;62438;52.228;6.864;2022-08-25T08:08:29;25.88;52.75
74081;SHT31;62438;52.228;6.864;2022-08-25T08:10:29;25.85;51.57
74081;SHT31;62438;52.228;6.864;2022-08-25T08:12:30;25.97;52.75
74081;SHT31;62438;52.228;6.864;2022-08-25T08:14:30;26.11;52.38
74081;SHT31;62438;52.228;6.864;2022-08-25T08:16:31;26.18;52.28
74081;SHT31;62438;52.228;6.864;2022-08-25T08:18:32;26.21;51.27
74081;SHT31;62438;52.228;6.864;2022-08-25T08:20:32;26.33;51.50
74081;SHT31;62438;52.228;6.864;2022-08-25T08:22:35;26.45;51.20
74081;SHT31;62438;52.228;6.864;2022-08-25T08:24:36;26.53;51.46
74081;SHT31;62438;52.228;6.864;2022-08-25T08:26:39;26.61;51.62
74081;SHT31;62438;52.228;6.864;2022-08-25T08:28:40;26.60;50.45
74081;SHT31;62438;52.228;6.864;2022-08-25T08:30:40;26.60;51.34
74081;SHT31;62438;52.228;6.864;2022-08-25T08:32:41;26.84;50.53
74081;SHT31;62438;52.228;6.864;2022-08-25T08:34:42;26.83;51.00
74081;SHT31;62438;52.228;6.864;2022-08-25T08:36:42;26.94;50.09
74081;SHT31;62438;52.228;6.864;2022-08-25T08:38:44;27.01;50.68
74081;SHT31;62438;52.228;6.864;2022-08-25T08:43:43;27.14;50.28
74081;SHT31;62438;52.228;6.864;2022-08-25T08:45:49;27.32;49.33
74081;SHT31;62438;52.228;6.864;2022-08-25T08:48:00;27.55;49.58
74081;SHT31;62438;52.228;6.864;2022-08-25T08:52:36;27.53;48.76
74081;SHT31;62438;52.228;6.864;2022-08-25T08:54:41;27.65;48.20
74081;SHT31;62438;52.228;6.864;2022-08-25T08:56:44;27.61;49.70
74081;SHT31;62438;52.228;6.864;2022-08-25T08:58:55;27.55;49.40
74081;SHT31;62438;52.228;6.864;2022-08-25T09:00:57;27.66;49.32
74081;SHT31;62438;52.228;6.864;2022-08-25T09:03:05;27.86;49.65
74081;SHT31;62438;52.228;6.864;2022-08-25T09:05:10;27.89;47.44
74081;SHT31;62438;52.228;6.864;2022-08-25T09:07:15;27.88;48.55
74081;SHT31;62438;52.228;6.864;2022-08-25T09:09:33;28.04;49.27
74081;SHT31;62438;52.228;6.864;2022-08-25T09:16:29;28.21;47.27
74081;SHT31;62438;52.228;6.864;2022-08-25T09:21:27;28.33;47.14
74081;SHT31;62438;52.228;6.864;2022-08-25T09:25:55;28.27;47.20
74081;SHT31;62438;52.228;6.864;2022-08-25T09:28:08;28.47;47.45
74081;SHT31;62438;52.228;6.864;2022-08-25T09:30:17;28.50;47.01
74081;SHT31;62438;52.228;6.864;2022-08-25T09:32:18;28.61;46.76
74081;SHT31;62438;52.228;6.864;2022-08-25T09:34:22;28.72;46.43
74081;SHT31;62438;52.228;6.864;2022-08-25T09:36:24;28.75;46.95
74081;SHT31;62438;52.228;6.864;2022-08-25T09:38:26;28.79;45.46
74081;SHT31;62438;52.228;6.864;2022-08-25T09:40:31;28.89;44.44
74081;SHT31;62438;52.228;6.864;2022-08-25T09:42:53;28.91;46.55
74081;SHT31;62438;52.228;6.864;2022-08-25T09:44:54;28.80;44.80
74081;SHT31;62438;52.228;6.864;2022-08-25T09:47:05;28.89;44.40
74081;SHT31;62438;52.228;6.864;2022-08-25T09:49:11;29.07;45.05
74081;SHT31;62438;52.228;6.864;2022-08-25T09:51:28;29.06;45.70
74081;SHT31;62438;52.228;6.864;2022-08-25T09:53:29;29.12;44.03
74081;SHT31;62438;52.228;6.864;2022-08-25T09:55:31;28.96;44.48
74081;SHT31;62438;52.228;6.864;2022-08-25T09:57:43;29.05;45.23
74081;SHT31;62438;52.228;6.864;2022-08-25T09:59:43;29.30;44.99
74081;SHT31;62438;52.228;6.864;2022-08-25T10:01:52;29.38;42.08
74081;SHT31;62438;52.228;6.864;2022-08-25T10:03:58;29.30;42.35
74081;SHT31;62438;52.228;6.864;2022-08-25T10:06:06;29.47;43.23
74081;SHT31;62438;52.228;6.864;2022-08-25T10:08:29;29.75;44.79
74081;SHT31;62438;52.228;6.864;2022-08-25T10:10:37;29.89;42.07
74081;SHT31;62438;52.228;6.864;2022-08-25T10:12:41;29.95;42.38
74081;SHT31;62438;52.228;6.864;2022-08-25T10:14:43;30.09;41.65
74081;SHT31;62438;52.228;6.864;2022-08-25T10:16:43;30.08;40.13
74081;SHT31;62438;52.228;6.864;2022-08-25T10:19:09;29.95;40.69
74081;SHT31;62438;52.228;6.864;2022-08-25T10:21:14;30.04;40.82
74081;SHT31;62438;52.228;6.864;2022-08-25T10:23:15;30.39;40.93
74081;SHT31;62438;52.228;6.864;2022-08-25T10:25:27;30.29;40.44
74081;SHT31;62438;52.228;6.864;2022-08-25T10:30:04;30.69;38.82
74081;SHT31;62438;52.228;6.864;2022-08-25T10:34:28;30.95;37.03
74081;SHT31;62438;52.228;6.864;2022-08-25T10:38:58;31.38;37.75
74081;SHT31;62438;52.228;6.864;2022-08-25T10:43:35;31.20;37.32
74081;SHT31;62438;52.228;6.864;2022-08-25T10:45:53;31.46;34.95
74081;SHT31;62438;52.228;6.864;2022-08-25T10:50:28;31.99;32.53
74081;SHT31;62438;52.228;6.864;2022-08-25T10:52:55;31.89;33.64
74081;SHT31;62438;52.228;6.864;2022-08-25T10:55:12;32.24;31.41
74081;SHT31;62438;52.228;6.864;2022-08-25T11:00:31;32.47;30.13
74081;SHT31;62438;52.228;6.864;2022-08-25T11:07:28;32.68;34.08
74081;SHT31;62438;52.228;6.864;2022-08-25T11:09:33;32.57;33.69
74081;SHT31;62438;52.228;6.864;2022-08-25T11:11:55;32.57;33.39
74081;SHT31;62438;52.228;6.864;2022-08-25T11:16:08;33.02;30.86
74081;SHT31;62438;52.228;6.864;2022-08-25T11:18:12;32.94;31.94
74081;SHT31;62438;52.228;6.864;2022-08-25T11:20:17;32.92;31.64
74081;SHT31;62438;52.228;6.864;2022-08-25T11:22:45;32.99;32.73
74081;SHT31;62438;52.228;6.864;2022-08-25T11:25:01;33.03;33.18
74081;SHT31;62438;52.228;6.864;2022-08-25T11:27:11;33.15;32.82
74081;SHT31;62438;52.228;6.864;2022-08-25T11:29:17;33.06;32.52
74081;SHT31;62438;52.228;6.864;2022-08-25T11:31:18;33.30;31.68
74081;SHT31;62438;52.228;6.864;2022-08-25T11:33:22;33.23;30.59
74081;SHT31;62438;52.228;6.864;2022-08-25T11:35:36;33.33;31.31
74081;SHT31;62438;52.228;6.864;2022-08-25T11:42:47;33.32;29.96
74081;SHT31;62438;52.228;6.864;2022-08-25T11:49:58;33.11;31.47
74081;SHT31;62438;52.228;6.864;2022-08-25T11:51:59;33.30;31.80
74081;SHT31;62438;52.228;6.864;2022-08-25T11:54:17;33.34;29.85
74081;SHT31;62438;52.228;6.864;2022-08-25T11:56:38;33.50;31.08
74081;SHT31;62438;52.228;6.864;2022-08-25T11:58:50;33.59;32.19
74081;SHT31;62438;52.228;6.864;2022-08-25T12:00:51;33.87;31.49
74081;SHT31;62438;52.228;6.864;2022-08-25T12:02:51;33.67;32.18
74081;SHT31;62438;52.228;6.864;2022-08-25T12:04:52;33.86;31.70
74081;SHT31;62438;52.228;6.864;2022-08-25T12:11:49;33.69;33.36
74081;SHT31;62438;52.228;6.864;2022-08-25T12:13:50;33.82;31.48
74081;SHT31;62438;52.228;6.864;2022-08-25T12:20:12;33.76;31.80
74081;SHT31;62438;52.228;6.864;2022-08-25T12:24:14;34.01;30.83
74081;SHT31;62438;52.228;6.864;2022-08-25T12:30:51;34.18;30.66
74081;SHT31;62438;52.228;6.864;2022-08-25T12:33:18;34.28;29.06
74081;SHT31;62438;52.228;6.864;2022-08-25T12:35:28;33.89;31.49
74081;SHT31;62438;52.228;6.864;2022-08-25T12:37:29;33.97;31.42
74081;SHT31;62438;52.228;6.864;2022-08-25T12:39:35;34.07;32.06
74081;SHT31;62438;52.228;6.864;2022-08-25T12:41:54;33.64;32.49
74081;SHT31;62438;52.228;6.864;2022-08-25T12:44:16;34.17;30.95
74081;SHT31;62438;52.228;6.864;2022-08-25T12:50:38;33.57;32.06
74081;SHT31;62438;52.228;6.864;2022-08-25T12:52:39;33.87;32.44
74081;SHT31;62438;52.228;6.864;2022-08-25T12:54:56;33.34;31.68
74081;SHT31;62438;52.228;6.864;2022-08-25T12:57:00;33.74;31.06
74081;SHT31;62438;52.228;6.864;2022-08-25T12:59:22;33.78;32.23
74081;SHT31;62438;52.228;6.864;2022-08-25T13:06:13;33.53;31.88
74081;SHT31;62438;52.228;6.864;2022-08-25T13:15:38;34.28;29.16
74081;SHT31;62438;52.228;6.864;2022-08-25T13:17:39;34.59;30.18
74081;SHT31;62438;52.228;6.864;2022-08-25T13:19:39;33.81;28.77
74081;SHT31;62438;52.228;6.864;2022-08-25T13:21:41;33.97;29.83
74081;SHT31;62438;52.228;6.864;2022-08-25T13:23:50;33.97;29.66
74081;SHT31;62438;52.228;6.864;2022-08-25T13:25:52;33.64;29.92
74081;SHT31;62438;52.228;6.864;2022-08-25T13:27:56;33.91;29.72
74081;SHT31;62438;52.228;6.864;2022-08-25T13:29:58;34.12;28.84
74081;SHT31;62438;52.228;6.864;2022-08-25T13:32:16;34.35;28.60
74081;SHT31;62438;52.228;6.864;2022-08-25T13:34:26;34.24;27.78
74081;SHT31;62438;52.228;6.864;2022-08-25T13:36:30;34.83;28.13
74081;SHT31;62438;52.228;6.864;2022-08-25T13:38:49;34.12;30.51
74081;SHT31;62438;52.228;6.864;2022-08-25T13:40:50;34.00;29.66
74081;SHT31;62438;52.228;6.864;2022-08-25T13:42:54;34.21;30.03
74081;SHT31;62438;52.228;6.864;2022-08-25T13:44:54;33.96;30.31
74081;SHT31;62438;52.228;6.864;2022-08-25T13:47:13;33.74;30.66
74081;SHT31;62438;52.228;6.864;2022-08-25T13:49:25;33.89;29.91
74081;SHT31;62438;52.228;6.864;2022-08-25T13:51:26;33.82;30.00
74081;SHT31;62438;52.228;6.864;2022-08-25T13:53:27;34.37;27.89
74081;SHT31;62438;52.228;6.864;2022-08-25T13:55:48;34.17;29.02
74081;SHT31;62438;52.228;6.864;2022-08-25T13:57:50;33.80;29.61
74081;SHT31;62438;52.228;6.864;2022-08-25T14:00:07;33.74;29.84
74081;SHT31;62438;52.228;6.864;2022-08-25T14:02:10;33.70;30.39
74081;SHT31;62438;52.228;6.864;2022-08-25T14:06:41;32.70;30.61
74081;SHT31;62438;52.228;6.864;2022-08-25T14:11:09;32.13;32.10
74081;SHT31;62438;52.228;6.864;2022-08-25T14:17:16;32.43;31.56
74081;SHT31;62438;52.228;6.864;2022-08-25T14:19:18;32.02;31.49
74081;SHT31;62438;52.228;6.864;2022-08-25T14:21:24;32.05;33.41
74081;SHT31;62438;52.228;6.864;2022-08-25T14:23:27;31.97;32.44
74081;SHT31;62438;52.228;6.864;2022-08-25T14:25:29;32.10;31.65
74081;SHT31;62438;52.228;6.864;2022-08-25T14:27:30;32.20;30.55
74081;SHT31;62438;52.228;6.864;2022-08-25T14:29:31;32.05;31.31
74081;SHT31;62438;52.228;6.864;2022-08-25T14:31:34;31.99;30.49
74081;SHT31;62438;52.228;6.864;2022-08-25T14:33:51;32.00;31.28